sensor_id;sensor_type;location;lat;lon;timestamp;temperature;humidity
26537;DHT22;14204;51.262;5.488;2024-01-06T00:01:29;9.60;99.90
26537;DHT22;14204;51.262;5.488;2024-01-06T00:03:55;9.60;99.90
26537;DHT22;14204;51.262;5.488;2024-01-06T00:06:21;9.60;99.90
26537;DHT22;14204;51.262;5.488;2024-01-06T00:08:47;9.60;99.90
26537;DHT22;14204;51.262;5.488;2024-01-06T00:11:19;9.60;99.90
26537;DHT22;14204;51.262;5.488;2024-01-06T00:13:45;9.60;99.90
26537;DHT22;14204;51.262;5.488;2024-01-06T00:16:11;9.60;99.90
26537;DHT22;14204;51.262;5.488;2024-01-06T00:18:37;9.70;99.90
26537;DHT22;14204;51.262;5.488;2024-01-06T00:21:03;9.70;99.90
26537;DHT22;14204;51.262;5.488;2024-01-06T00:23:28;9.70;99.90
26537;DHT22;14204;51.262;5.488;2024-01-06T00:25:54;9.70;99.90
26537;DHT22;14204;51.262;5.488;2024-01-06T00:28:20;9.70;99.90
26537;DHT22;14204;51.262;5.488;2024-01-06T00:30:45;9.70;99.90
26537;DHT22;14204;51.262;5.488;2024-01-06T00:33:12;9.70;99.90
26537;DHT22;14204;51.262;5.488;2024-01-06T00:35:37;9.70;99.90
26537;DHT22;14204;51.262;5.488;2024-01-06T00:38:03;9.70;99.90
26537;DHT22;14204;51.262;5.488;2024-01-06T00:40:29;9.70;99.90
26537;DHT22;14204;51.262;5.488;2024-01-06T00:42:55;9.80;99.90
26537;DHT22;14204;51.262;5.488;2024-01-06T00:45:20;9.80;99.90
26537;DHT22;14204;51.262;5.488;2024-01-06T00:47:47;9.70;99.90
26537;DHT22;14204;51.262;5.488;2024-01-06T00:50:13;9.80;99.90
26537;DHT22;14204;51.262;5.488;2024-01-06T00:52:39;9.70;99.90
26537;DHT22;14204;51.262;5.488;2024-01-06T00:55:04;9.70;99.90
26537;DHT22;14204;51.262;5.488;2024-01-06T00:57:30;9.70;99.90
26537;DHT22;14204;51.262;5.488;2024-01-06T00:59:56;9.80;99.90
26537;DHT22;14204;51.262;5.488;2024-01-06T01:02:21;9.70;99.90
26537;DHT22;14204;51.262;5.488;2024-01-06T01:04:47;9.70;99.90
26537;DHT22;14204;51.262;5.488;2024-01-06T01:07:13;9.70;99.90
26537;DHT22;14204;51.262;5.488;2024-01-06T01:09:38;9.70;99.90
26537;DHT22;14204;51.262;5.488;2024-01-06T01:12:04;9.70;99.90
26537;DHT22;14204;51.262;5.488;2024-01-06T01:14:30;9.70;99.90
26537;DHT22;14204;51.262;5.488;2024-01-06T01:16:56;9.70;99.90
26537;DHT22;14204;51.262;5.488;2024-01-06T01:19:21;9.70;99.90
26537;DHT22;14204;51.262;5.488;2024-01-06T01:21:47;9.60;99.90
26537;DHT22;14204;51.262;5.488;2024-01-06T01:24:13;9.70;99.90
26537;DHT22;14204;51.262;5.488;2024-01-06T01:26:38;9.60;99.90
26537;DHT22;14204;51.262;5.488;2024-01-06T01:29:04;9.60;99.90
26537;DHT22;14204;51.262;5.488;2024-01-06T01:31:29;9.60;99.90
26537;DHT22;14204;51.262;5.488;2024-01-06T01:33:55;9.50;99.90
26537;DHT22;14204;51.262;5.488;2024-01-06T01:36:21;9.50;99.90
26537;DHT22;14204;51.262;5.488;2024-01-06T01:38:47;9.50;99.90
26537;DHT22;14204;51.262;5.488;2024-01-06T01:41:13;9.40;99.90
26537;DHT22;14204;51.262;5.488;2024-01-06T01:43:38;9.50;99.90
26537;DHT22;14204;51.262;5.488;2024-01-06T01:46:04;9.50;99.90
26537;DHT22;14204;51.262;5.488;2024-01-06T01:48:30;9.40;99.90
26537;DHT22;14204;51.262;5.488;2024-01-06T01:50:59;9.40;99.90
26537;DHT22;14204;51.262;5.488;2024-01-06T01:53:24;9.40;99.90
26537;DHT22;14204;51.262;5.488;2024-01-06T01:55:52;9.40;99.90
26537;DHT22;14204;51.262;5.488;2024-01-06T01:58:18;9.40;99.90
26537;DHT22;14204;51.262;5.488;2024-01-06T02:00:44;9.40;99.90
26537;DHT22;14204;51.262;5.488;2024-01-06T02:03:11;9.50;99.90
26537;DHT22;14204;51.262;5.488;2024-01-06T02:05:38;9.40;99.90
26537;DHT22;14204;51.262;5.488;2024-01-06T02:08:04;9.40;99.90
26537;DHT22;14204;51.262;5.488;2024-01-06T02:10:31;9.40;99.90
26537;DHT22;14204;51.262;5.488;2024-01-06T02:12:56;9.40;99.90
26537;DHT22;14204;51.262;5.488;2024-01-06T02:15:22;9.30;99.90
26537;DHT22;14204;51.262;5.488;2024-01-06T02:17:48;9.30;99.90
26537;DHT22;14204;51.262;5.488;2024-01-06T02:20:14;9.30;99.90
26537;DHT22;14204;51.262;5.488;2024-01-06T02:22:41;9.30;99.90
26537;DHT22;14204;51.262;5.488;2024-01-06T02:25:07;9.20;99.90
26537;DHT22;14204;51.262;5.488;2024-01-06T02:27:38;9.20;99.90
26537;DHT22;14204;51.262;5.488;2024-01-06T02:30:06;9.20;99.90
26537;DHT22;14204;51.262;5.488;2024-01-06T02:32:32;9.20;99.90
26537;DHT22;14204;51.262;5.488;2024-01-06T02:34:57;9.20;99.90
26537;DHT22;14204;51.262;5.488;2024-01-06T02:37:23;9.20;99.90
26537;DHT22;14204;51.262;5.488;2024-01-06T02:39:48;9.20;99.90
26537;DHT22;14204;51.262;5.488;2024-01-06T02:42:14;9.20;99.90
26537;DHT22;14204;51.262;5.488;2024-01-06T02:44:40;9.20;99.90
26537;DHT22;14204;51.262;5.488;2024-01-06T02:47:06;9.20;99.90
26537;DHT22;14204;51.262;5.488;2024-01-06T02:49:31;9.20;99.90
26537;DHT22;14204;51.262;5.488;2024-01-06T02:51:57;9.10;99.90
26537;DHT22;14204;51.262;5.488;2024-01-06T02:54:22;9.10;99.90
26537;DHT22;14204;51.262;5.488;2024-01-06T02:56:48;9.10;99.90
26537;DHT22;14204;51.262;5.488;2024-01-06T02:59:14;9.10;99.90
26537;DHT22;14204;51.262;5.488;2024-01-06T03:01:39;9.10;99.90
26537;DHT22;14204;51.262;5.488;2024-01-06T03:04:05;9.00;99.90
26537;DHT22;14204;51.262;5.488;2024-01-06T03:06:31;9.00;99.90
26537;DHT22;14204;51.262;5.488;2024-01-06T03:08:56;9.00;99.90
26537;DHT22;14204;51.262;5.488;2024-01-06T03:11:22;9.00;99.90
26537;DHT22;14204;51.262;5.488;2024-01-06T03:13:48;9.00;99.90
26537;DHT22;14204;51.262;5.488;2024-01-06T03:16:14;8.90;99.90
26537;DHT22;14204;51.262;5.488;2024-01-06T03:18:39;8.90;99.90
26537;DHT22;14204;51.262;5.488;2024-01-06T03:21:05;9.00;99.90
26537;DHT22;14204;51.262;5.488;2024-01-06T03:23:30;8.90;99.90
26537;DHT22;14204;51.262;5.488;2024-01-06T03:25:56;8.90;99.90
26537;DHT22;14204;51.262;5.488;2024-01-06T03:28:22;8.90;99.90
26537;DHT22;14204;51.262;5.488;2024-01-06T03:30:48;8.90;99.90
26537;DHT22;14204;51.262;5.488;2024-01-06T03:33:14;8.90;99.90
26537;DHT22;14204;51.262;5.488;2024-01-06T03:35:39;8.90;99.90
26537;DHT22;14204;51.262;5.488;2024-01-06T03:38:05;8.80;99.90
26537;DHT22;14204;51.262;5.488;2024-01-06T03:40:31;8.90;99.90
26537;DHT22;14204;51.262;5.488;2024-01-06T03:42:56;8.80;99.90
26537;DHT22;14204;51.262;5.488;2024-01-06T03:45:22;8.80;99.90
26537;DHT22;14204;51.262;5.488;2024-01-06T03:47:47;8.70;99.90
26537;DHT22;14204;51.262;5.488;2024-01-06T03:50:13;8.70;99.90
26537;DHT22;14204;51.262;5.488;2024-01-06T03:52:39;8.70;99.90
26537;DHT22;14204;51.262;5.488;2024-01-06T03:55:05;8.70;99.90
26537;DHT22;14204;51.262;5.488;2024-01-06T03:57:31;8.70;99.90
26537;DHT22;14204;51.262;5.488;2024-01-06T03:59:57;8.70;99.90
26537;DHT22;14204;51.262;5.488;2024-01-06T04:02:23;8.70;99.90
26537;DHT22;14204;51.262;5.488;2024-01-06T04:04:49;8.60;99.90
26537;DHT22;14204;51.262;5.488;2024-01-06T04:07:15;8.70;99.90
26537;DHT22;14204;51.262;5.488;2024-01-06T04:09:43;8.70;99.90
26537;DHT22;14204;51.262;5.488;2024-01-06T04:12:09;8.60;99.90
26537;DHT22;14204;51.262;5.488;2024-01-06T04:14:35;8.70;99.90
26537;DHT22;14204;51.262;5.488;2024-01-06T04:17:00;8.70;99.90
26537;DHT22;14204;51.262;5.488;2024-01-06T04:19:26;8.70;99.90
26537;DHT22;14204;51.262;5.488;2024-01-06T04:21:52;8.70;99.90
26537;DHT22;14204;51.262;5.488;2024-01-06T04:24:17;8.70;99.90
26537;DHT22;14204;51.262;5.488;2024-01-06T04:26:43;8.60;99.90
26537;DHT22;14204;51.262;5.488;2024-01-06T04:29:10;8.60;99.90
26537;DHT22;14204;51.262;5.488;2024-01-06T04:31:37;8.60;99.90
26537;DHT22;14204;51.262;5.488;2024-01-06T04:34:03;8.50;99.90
26537;DHT22;14204;51.262;5.488;2024-01-06T04:36:29;8.50;99.90
26537;DHT22;14204;51.262;5.488;2024-01-06T04:38:55;8.50;99.90
26537;DHT22;14204;51.262;5.488;2024-01-06T04:41:21;8.50;99.90
26537;DHT22;14204;51.262;5.488;2024-01-06T04:43:46;8.50;99.90
26537;DHT22;14204;51.262;5.488;2024-01-06T04:46:12;8.50;99.90
26537;DHT22;14204;51.262;5.488;2024-01-06T04:48:40;8.50;99.90
26537;DHT22;14204;51.262;5.488;2024-01-06T04:51:06;8.50;99.90
26537;DHT22;14204;51.262;5.488;2024-01-06T04:53:36;8.50;99.90
26537;DHT22;14204;51.262;5.488;2024-01-06T04:56:01;8.50;99.90
26537;DHT22;14204;51.262;5.488;2024-01-06T04:58:27;8.50;99.90
26537;DHT22;14204;51.262;5.488;2024-01-06T05:00:53;8.60;99.90
26537;DHT22;14204;51.262;5.488;2024-01-06T05:03:19;8.60;99.90
26537;DHT22;14204;51.262;5.488;2024-01-06T05:05:45;8.50;99.90
26537;DHT22;14204;51.262;5.488;2024-01-06T05:08:10;8.50;99.90
26537;DHT22;14204;51.262;5.488;2024-01-06T05:10:36;8.50;99.90
26537;DHT22;14204;51.262;5.488;2024-01-06T05:13:02;8.50;99.90
26537;DHT22;14204;51.262;5.488;2024-01-06T05:15:27;8.40;99.90
26537;DHT22;14204;51.262;5.488;2024-01-06T05:17:53;8.40;99.90
26537;DHT22;14204;51.262;5.488;2024-01-06T05:20:19;8.40;99.90
26537;DHT22;14204;51.262;5.488;2024-01-06T05:22:44;8.40;99.90
26537;DHT22;14204;51.262;5.488;2024-01-06T05:25:10;8.40;99.90
26537;DHT22;14204;51.262;5.488;2024-01-06T05:27:36;8.40;99.90
26537;DHT22;14204;51.262;5.488;2024-01-06T05:30:02;8.40;99.90
26537;DHT22;14204;51.262;5.488;2024-01-06T05:32:27;8.50;99.90
26537;DHT22;14204;51.262;5.488;2024-01-06T05:34:53;8.40;99.90
26537;DHT22;14204;51.262;5.488;2024-01-06T05:37:19;8.40;99.90
26537;DHT22;14204;51.262;5.488;2024-01-06T05:39:44;8.40;99.90
26537;DHT22;14204;51.262;5.488;2024-01-06T05:42:10;8.40;99.90
26537;DHT22;14204;51.262;5.488;2024-01-06T05:44:43;8.30;99.90
26537;DHT22;14204;51.262;5.488;2024-01-06T05:47:09;8.30;99.90
26537;DHT22;14204;51.262;5.488;2024-01-06T05:49:34;8.20;99.90
26537;DHT22;14204;51.262;5.488;2024-01-06T05:52:00;8.20;99.90
26537;DHT22;14204;51.262;5.488;2024-01-06T05:54:26;8.20;99.90
26537;DHT22;14204;51.262;5.488;2024-01-06T05:56:51;8.20;99.90
26537;DHT22;14204;51.262;5.488;2024-01-06T05:59:17;8.10;99.90
26537;DHT22;14204;51.262;5.488;2024-01-06T06:01:43;8.10;99.90
26537;DHT22;14204;51.262;5.488;2024-01-06T06:04:12;8.10;99.90
26537;DHT22;14204;51.262;5.488;2024-01-06T06:06:38;8.10;99.90
26537;DHT22;14204;51.262;5.488;2024-01-06T06:09:03;8.10;99.90
26537;DHT22;14204;51.262;5.488;2024-01-06T06:11:33;8.10;99.90
26537;DHT22;14204;51.262;5.488;2024-01-06T06:13:59;8.10;99.90
26537;DHT22;14204;51.262;5.488;2024-01-06T06:16:24;8.10;99.90
26537;DHT22;14204;51.262;5.488;2024-01-06T06:18:50;8.10;99.90
26537;DHT22;14204;51.262;5.488;2024-01-06T06:21:16;8.10;99.90
26537;DHT22;14204;51.262;5.488;2024-01-06T06:23:41;8.10;99.90
26537;DHT22;14204;51.262;5.488;2024-01-06T06:26:08;8.10;99.90
26537;DHT22;14204;51.262;5.488;2024-01-06T06:28:34;8.10;99.90
26537;DHT22;14204;51.262;5.488;2024-01-06T06:31:01;8.10;99.90
26537;DHT22;14204;51.262;5.488;2024-01-06T06:33:27;8.10;99.90
26537;DHT22;14204;51.262;5.488;2024-01-06T06:35:53;8.00;99.90
26537;DHT22;14204;51.262;5.488;2024-01-06T06:38:18;8.10;99.90
26537;DHT22;14204;51.262;5.488;2024-01-06T06:40:44;8.10;99.90
26537;DHT22;14204;51.262;5.488;2024-01-06T06:43:10;8.10;99.90
26537;DHT22;14204;51.262;5.488;2024-01-06T06:45:35;8.10;99.90
26537;DHT22;14204;51.262;5.488;2024-01-06T06:48:01;8.10;99.90
26537;DHT22;14204;51.262;5.488;2024-01-06T06:50:27;8.00;99.90
26537;DHT22;14204;51.262;5.488;2024-01-06T06:52:53;8.10;99.90
26537;DHT22;14204;51.262;5.488;2024-01-06T06:55:18;8.00;99.90
26537;DHT22;14204;51.262;5.488;2024-01-06T06:57:45;8.00;99.90
26537;DHT22;14204;51.262;5.488;2024-01-06T07:00:11;8.10;99.90
26537;DHT22;14204;51.262;5.488;2024-01-06T07:02:37;8.10;99.90
26537;DHT22;14204;51.262;5.488;2024-01-06T07:05:03;8.10;99.90
26537;DHT22;14204;51.262;5.488;2024-01-06T07:07:32;8.20;99.90
26537;DHT22;14204;51.262;5.488;2024-01-06T07:10:00;8.10;99.90
26537;DHT22;14204;51.262;5.488;2024-01-06T07:12:26;8.10;99.90
26537;DHT22;14204;51.262;5.488;2024-01-06T07:14:53;8.10;99.90
26537;DHT22;14204;51.262;5.488;2024-01-06T07:17:18;8.10;99.90
26537;DHT22;14204;51.262;5.488;2024-01-06T07:19:44;8.00;99.90
26537;DHT22;14204;51.262;5.488;2024-01-06T07:22:10;8.00;99.90
26537;DHT22;14204;51.262;5.488;2024-01-06T07:24:36;8.00;99.90
26537;DHT22;14204;51.262;5.488;2024-01-06T07:27:02;7.70;99.90
26537;DHT22;14204;51.262;5.488;2024-01-06T07:29:31;7.80;99.90
26537;DHT22;14204;51.262;5.488;2024-01-06T07:31:57;7.80;99.90
26537;DHT22;14204;51.262;5.488;2024-01-06T07:34:23;7.80;99.90
26537;DHT22;14204;51.262;5.488;2024-01-06T07:36:49;7.80;99.90
26537;DHT22;14204;51.262;5.488;2024-01-06T07:39:15;7.80;99.90
26537;DHT22;14204;51.262;5.488;2024-01-06T07:41:40;7.70;99.90
26537;DHT22;14204;51.262;5.488;2024-01-06T07:44:06;7.70;99.90
26537;DHT22;14204;51.262;5.488;2024-01-06T07:46:32;7.70;99.90
26537;DHT22;14204;51.262;5.488;2024-01-06T07:48:58;7.70;99.90
26537;DHT22;14204;51.262;5.488;2024-01-06T07:51:23;7.60;99.90
26537;DHT22;14204;51.262;5.488;2024-01-06T07:53:50;7.60;99.90
26537;DHT22;14204;51.262;5.488;2024-01-06T07:56:16;7.60;99.90
26537;DHT22;14204;51.262;5.488;2024-01-06T07:58:42;7.60;99.90
26537;DHT22;14204;51.262;5.488;2024-01-06T08:01:08;7.60;99.90
26537;DHT22;14204;51.262;5.488;2024-01-06T08:03:33;7.50;99.90
26537;DHT22;14204;51.262;5.488;2024-01-06T08:05:59;7.60;99.90
26537;DHT22;14204;51.262;5.488;2024-01-06T08:08:26;7.60;99.90
26537;DHT22;14204;51.262;5.488;2024-01-06T08:10:52;7.60;99.90
26537;DHT22;14204;51.262;5.488;2024-01-06T08:13:17;7.60;99.90
26537;DHT22;14204;51.262;5.488;2024-01-06T08:15:43;7.60;99.90
26537;DHT22;14204;51.262;5.488;2024-01-06T08:18:09;7.60;99.90
26537;DHT22;14204;51.262;5.488;2024-01-06T08:20:34;7.70;99.90
26537;DHT22;14204;51.262;5.488;2024-01-06T08:23:00;7.70;99.90
26537;DHT22;14204;51.262;5.488;2024-01-06T08:25:26;7.70;99.90
26537;DHT22;14204;51.262;5.488;2024-01-06T08:27:51;7.70;99.90
26537;DHT22;14204;51.262;5.488;2024-01-06T08:30:17;7.80;99.90
26537;DHT22;14204;51.262;5.488;2024-01-06T08:32:43;7.80;99.90
26537;DHT22;14204;51.262;5.488;2024-01-06T08:35:09;7.80;99.90
26537;DHT22;14204;51.262;5.488;2024-01-06T08:37:35;7.80;99.90
26537;DHT22;14204;51.262;5.488;2024-01-06T08:40:01;7.80;99.90
26537;DHT22;14204;51.262;5.488;2024-01-06T08:42:28;7.90;99.90
26537;DHT22;14204;51.262;5.488;2024-01-06T08:44:54;7.80;99.90
26537;DHT22;14204;51.262;5.488;2024-01-06T08:47:20;7.90;99.90
26537;DHT22;14204;51.262;5.488;2024-01-06T08:49:45;7.90;99.90
26537;DHT22;14204;51.262;5.488;2024-01-06T08:52:11;7.90;99.90
26537;DHT22;14204;51.262;5.488;2024-01-06T08:54:37;7.90;99.90
26537;DHT22;14204;51.262;5.488;2024-01-06T08:57:03;7.90;99.90
26537;DHT22;14204;51.262;5.488;2024-01-06T08:59:28;7.90;99.90
26537;DHT22;14204;51.262;5.488;2024-01-06T09:01:54;7.90;99.90
26537;DHT22;14204;51.262;5.488;2024-01-06T09:04:21;7.90;99.90
26537;DHT22;14204;51.262;5.488;2024-01-06T09:06:47;7.90;99.90
26537;DHT22;14204;51.262;5.488;2024-01-06T09:09:13;7.90;99.90
26537;DHT22;14204;51.262;5.488;2024-01-06T09:11:39;7.90;99.90
26537;DHT22;14204;51.262;5.488;2024-01-06T09:14:05;7.90;99.90
26537;DHT22;14204;51.262;5.488;2024-01-06T09:16:30;7.90;99.90
26537;DHT22;14204;51.262;5.488;2024-01-06T09:18:56;8.00;99.90
26537;DHT22;14204;51.262;5.488;2024-01-06T09:21:23;8.00;99.90
26537;DHT22;14204;51.262;5.488;2024-01-06T09:23:48;8.00;99.90
26537;DHT22;14204;51.262;5.488;2024-01-06T09:26:14;8.10;99.90
26537;DHT22;14204;51.262;5.488;2024-01-06T09:28:41;8.00;99.90
26537;DHT22;14204;51.262;5.488;2024-01-06T09:31:07;8.00;99.90
26537;DHT22;14204;51.262;5.488;2024-01-06T09:33:33;8.10;99.90
26537;DHT22;14204;51.262;5.488;2024-01-06T09:36:00;8.10;99.90
26537;DHT22;14204;51.262;5.488;2024-01-06T09:38:25;8.10;99.90
26537;DHT22;14204;51.262;5.488;2024-01-06T09:40:53;8.00;99.90
26537;DHT22;14204;51.262;5.488;2024-01-06T09:43:19;8.10;99.90
26537;DHT22;14204;51.262;5.488;2024-01-06T09:45:56;8.00;99.90
26537;DHT22;14204;51.262;5.488;2024-01-06T09:48:28;8.00;99.90
26537;DHT22;14204;51.262;5.488;2024-01-06T09:50:56;7.90;99.90
26537;DHT22;14204;51.262;5.488;2024-01-06T09:53:25;7.90;99.90
26537;DHT22;14204;51.262;5.488;2024-01-06T09:55:55;7.80;99.90
26537;DHT22;14204;51.262;5.488;2024-01-06T09:58:21;7.80;99.90
26537;DHT22;14204;51.262;5.488;2024-01-06T10:00:48;7.80;99.90
26537;DHT22;14204;51.262;5.488;2024-01-06T10:03:15;7.80;99.90
26537;DHT22;14204;51.262;5.488;2024-01-06T10:05:41;7.70;99.90
26537;DHT22;14204;51.262;5.488;2024-01-06T10:08:06;7.70;99.90
26537;DHT22;14204;51.262;5.488;2024-01-06T10:10:35;7.70;99.90
26537;DHT22;14204;51.262;5.488;2024-01-06T10:13:01;7.80;99.90
26537;DHT22;14204;51.262;5.488;2024-01-06T10:15:26;7.80;99.90
26537;DHT22;14204;51.262;5.488;2024-01-06T10:17:53;7.90;99.90
26537;DHT22;14204;51.262;5.488;2024-01-06T10:20:19;7.90;99.90
26537;DHT22;14204;51.262;5.488;2024-01-06T10:22:46;7.90;99.90
26537;DHT22;14204;51.262;5.488;2024-01-06T10:25:12;7.90;99.90
26537;DHT22;14204;51.262;5.488;2024-01-06T10:27:39;7.90;99.90
26537;DHT22;14204;51.262;5.488;2024-01-06T10:30:09;7.90;99.90
26537;DHT22;14204;51.262;5.488;2024-01-06T10:32:36;7.80;99.90
26537;DHT22;14204;51.262;5.488;2024-01-06T10:35:03;7.90;99.90
26537;DHT22;14204;51.262;5.488;2024-01-06T10:37:29;7.90;99.90
26537;DHT22;14204;51.262;5.488;2024-01-06T10:40:12;7.80;99.90
26537;DHT22;14204;51.262;5.488;2024-01-06T10:42:40;7.80;99.90
26537;DHT22;14204;51.262;5.488;2024-01-06T10:45:08;7.80;99.90
26537;DHT22;14204;51.262;5.488;2024-01-06T10:47:36;7.80;99.90
26537;DHT22;14204;51.262;5.488;2024-01-06T10:50:02;7.80;99.90
26537;DHT22;14204;51.262;5.488;2024-01-06T10:52:28;7.80;99.90
26537;DHT22;14204;51.262;5.488;2024-01-06T10:54:55;7.80;99.90
26537;DHT22;14204;51.262;5.488;2024-01-06T10:57:21;7.80;99.90
26537;DHT22;14204;51.262;5.488;2024-01-06T10:59:50;7.80;99.90
26537;DHT22;14204;51.262;5.488;2024-01-06T11:02:16;7.80;99.90
26537;DHT22;14204;51.262;5.488;2024-01-06T11:04:48;7.70;99.90
26537;DHT22;14204;51.262;5.488;2024-01-06T11:07:18;7.60;99.90
26537;DHT22;14204;51.262;5.488;2024-01-06T11:12:18;7.60;99.90
26537;DHT22;14204;51.262;5.488;2024-01-06T11:14:44;7.60;99.90
26537;DHT22;14204;51.262;5.488;2024-01-06T11:17:11;7.60;99.90
26537;DHT22;14204;51.262;5.488;2024-01-06T11:24:50;7.60;99.90
26537;DHT22;14204;51.262;5.488;2024-01-06T11:27:20;7.70;99.90
26537;DHT22;14204;51.262;5.488;2024-01-06T11:29:47;7.70;99.90
26537;DHT22;14204;51.262;5.488;2024-01-06T11:32:31;7.60;99.90
26537;DHT22;14204;51.262;5.488;2024-01-06T11:35:11;7.60;99.90
26537;DHT22;14204;51.262;5.488;2024-01-06T11:42:48;7.50;99.90
26537;DHT22;14204;51.262;5.488;2024-01-06T11:45:14;7.50;99.90
26537;DHT22;14204;51.262;5.488;2024-01-06T11:47:47;7.60;99.90
26537;DHT22;14204;51.262;5.488;2024-01-06T11:50:13;7.60;99.90
26537;DHT22;14204;51.262;5.488;2024-01-06T11:52:40;7.50;99.90
26537;DHT22;14204;51.262;5.488;2024-01-06T11:55:06;7.50;99.90
26537;DHT22;14204;51.262;5.488;2024-01-06T11:57:35;7.40;99.90
26537;DHT22;14204;51.262;5.488;2024-01-06T12:00:01;7.50;99.90
26537;DHT22;14204;51.262;5.488;2024-01-06T12:02:28;7.40;99.90
26537;DHT22;14204;51.262;5.488;2024-01-06T12:04:54;7.50;99.90
26537;DHT22;14204;51.262;5.488;2024-01-06T12:07:21;7.50;99.90
26537;DHT22;14204;51.262;5.488;2024-01-06T12:09:51;7.50;99.90
26537;DHT22;14204;51.262;5.488;2024-01-06T12:12:25;7.40;99.90
26537;DHT22;14204;51.262;5.488;2024-01-06T12:14:51;7.50;99.90
26537;DHT22;14204;51.262;5.488;2024-01-06T12:17:17;7.60;99.90
26537;DHT22;14204;51.262;5.488;2024-01-06T12:19:43;7.60;99.90
26537;DHT22;14204;51.262;5.488;2024-01-06T12:22:13;7.60;99.90
26537;DHT22;14204;51.262;5.488;2024-01-06T12:24:39;7.60;99.90
26537;DHT22;14204;51.262;5.488;2024-01-06T12:27:07;7.50;99.90
26537;DHT22;14204;51.262;5.488;2024-01-06T12:29:40;7.50;99.90
26537;DHT22;14204;51.262;5.488;2024-01-06T12:32:07;7.40;99.90
26537;DHT22;14204;51.262;5.488;2024-01-06T12:34:34;7.50;99.90
26537;DHT22;14204;51.262;5.488;2024-01-06T12:37:00;7.50;99.90
26537;DHT22;14204;51.262;5.488;2024-01-06T12:39:30;7.60;99.90
26537;DHT22;14204;51.262;5.488;2024-01-06T12:41:56;7.60;99.90
26537;DHT22;14204;51.262;5.488;2024-01-06T12:44:22;7.60;99.90
26537;DHT22;14204;51.262;5.488;2024-01-06T12:46:49;7.50;99.90
26537;DHT22;14204;51.262;5.488;2024-01-06T12:49:14;7.50;99.90
26537;DHT22;14204;51.262;5.488;2024-01-06T12:51:40;7.50;99.90
26537;DHT22;14204;51.262;5.488;2024-01-06T12:54:06;7.50;99.90
26537;DHT22;14204;51.262;5.488;2024-01-06T12:56:32;7.50;99.90
26537;DHT22;14204;51.262;5.488;2024-01-06T12:58:58;7.50;99.90
26537;DHT22;14204;51.262;5.488;2024-01-06T13:01:23;7.50;99.90
26537;DHT22;14204;51.262;5.488;2024-01-06T13:03:49;7.50;99.90
26537;DHT22;14204;51.262;5.488;2024-01-06T13:06:15;7.40;99.90
26537;DHT22;14204;51.262;5.488;2024-01-06T13:08:42;7.40;99.90
26537;DHT22;14204;51.262;5.488;2024-01-06T13:11:08;7.40;99.90
26537;DHT22;14204;51.262;5.488;2024-01-06T13:13:34;7.40;99.90
26537;DHT22;14204;51.262;5.488;2024-01-06T13:16:00;7.30;99.90
26537;DHT22;14204;51.262;5.488;2024-01-06T13:18:29;7.20;99.90
26537;DHT22;14204;51.262;5.488;2024-01-06T13:20:55;7.30;99.90
26537;DHT22;14204;51.262;5.488;2024-01-06T13:23:21;7.20;99.90
26537;DHT22;14204;51.262;5.488;2024-01-06T13:25:46;7.30;99.90
26537;DHT22;14204;51.262;5.488;2024-01-06T13:28:12;7.30;99.90
26537;DHT22;14204;51.262;5.488;2024-01-06T13:30:38;7.30;99.90
26537;DHT22;14204;51.262;5.488;2024-01-06T13:33:07;7.30;99.90
26537;DHT22;14204;51.262;5.488;2024-01-06T13:35:34;7.30;99.90
26537;DHT22;14204;51.262;5.488;2024-01-06T13:38:02;7.20;99.90
26537;DHT22;14204;51.262;5.488;2024-01-06T13:40:30;7.10;99.90
26537;DHT22;14204;51.262;5.488;2024-01-06T13:42:56;7.20;99.90
26537;DHT22;14204;51.262;5.488;2024-01-06T13:45:22;7.20;99.90
26537;DHT22;14204;51.262;5.488;2024-01-06T13:47:47;7.10;99.90
26537;DHT22;14204;51.262;5.488;2024-01-06T13:50:15;7.10;99.90
26537;DHT22;14204;51.262;5.488;2024-01-06T13:52:42;7.10;99.90
26537;DHT22;14204;51.262;5.488;2024-01-06T13:55:08;7.10;99.90
26537;DHT22;14204;51.262;5.488;2024-01-06T13:57:36;7.10;99.90
26537;DHT22;14204;51.262;5.488;2024-01-06T14:00:10;7.10;99.90
26537;DHT22;14204;51.262;5.488;2024-01-06T14:02:44;7.00;99.90
26537;DHT22;14204;51.262;5.488;2024-01-06T14:05:10;7.00;99.90
26537;DHT22;14204;51.262;5.488;2024-01-06T14:07:37;7.00;99.90
26537;DHT22;14204;51.262;5.488;2024-01-06T14:10:05;6.90;99.90
26537;DHT22;14204;51.262;5.488;2024-01-06T14:12:32;6.90;99.90
26537;DHT22;14204;51.262;5.488;2024-01-06T14:14:58;6.90;99.90
26537;DHT22;14204;51.262;5.488;2024-01-06T14:17:24;6.80;99.90
26537;DHT22;14204;51.262;5.488;2024-01-06T14:19:50;6.80;99.90
26537;DHT22;14204;51.262;5.488;2024-01-06T14:22:15;6.90;99.90
26537;DHT22;14204;51.262;5.488;2024-01-06T14:24:43;6.90;99.90
26537;DHT22;14204;51.262;5.488;2024-01-06T14:27:09;7.00;99.90
26537;DHT22;14204;51.262;5.488;2024-01-06T14:29:34;7.00;99.90
26537;DHT22;14204;51.262;5.488;2024-01-06T14:32:01;7.00;99.90
26537;DHT22;14204;51.262;5.488;2024-01-06T14:34:27;7.00;99.90
26537;DHT22;14204;51.262;5.488;2024-01-06T14:36:53;7.00;99.90
26537;DHT22;14204;51.262;5.488;2024-01-06T14:39:18;7.10;99.90
26537;DHT22;14204;51.262;5.488;2024-01-06T14:41:48;7.20;99.90
26537;DHT22;14204;51.262;5.488;2024-01-06T14:44:14;7.20;99.90
26537;DHT22;14204;51.262;5.488;2024-01-06T14:46:40;7.10;99.90
26537;DHT22;14204;51.262;5.488;2024-01-06T14:49:09;7.10;99.90
26537;DHT22;14204;51.262;5.488;2024-01-06T14:51:36;7.10;99.90
26537;DHT22;14204;51.262;5.488;2024-01-06T14:54:02;7.00;99.90
26537;DHT22;14204;51.262;5.488;2024-01-06T14:56:27;7.10;99.90
26537;DHT22;14204;51.262;5.488;2024-01-06T14:58:53;7.10;99.90
26537;DHT22;14204;51.262;5.488;2024-01-06T15:01:19;7.10;99.90
26537;DHT22;14204;51.262;5.488;2024-01-06T15:03:45;7.10;99.90
26537;DHT22;14204;51.262;5.488;2024-01-06T15:06:10;7.10;99.90
26537;DHT22;14204;51.262;5.488;2024-01-06T15:08:36;7.20;99.90
26537;DHT22;14204;51.262;5.488;2024-01-06T15:11:02;7.20;99.90
26537;DHT22;14204;51.262;5.488;2024-01-06T15:13:28;7.10;99.90
26537;DHT22;14204;51.262;5.488;2024-01-06T15:15:54;7.10;99.90
26537;DHT22;14204;51.262;5.488;2024-01-06T15:18:20;7.10;99.90
26537;DHT22;14204;51.262;5.488;2024-01-06T15:20:49;7.00;99.90
26537;DHT22;14204;51.262;5.488;2024-01-06T15:23:14;7.10;99.90
26537;DHT22;14204;51.262;5.488;2024-01-06T15:25:41;7.00;99.90
26537;DHT22;14204;51.262;5.488;2024-01-06T15:28:09;7.00;99.90
26537;DHT22;14204;51.262;5.488;2024-01-06T15:30:35;7.00;99.90
26537;DHT22;14204;51.262;5.488;2024-01-06T15:33:01;7.00;99.90
26537;DHT22;14204;51.262;5.488;2024-01-06T15:35:26;7.00;99.90
26537;DHT22;14204;51.262;5.488;2024-01-06T15:37:52;7.00;99.90
26537;DHT22;14204;51.262;5.488;2024-01-06T15:40:18;7.00;99.90
26537;DHT22;14204;51.262;5.488;2024-01-06T15:42:43;7.10;99.90
26537;DHT22;14204;51.262;5.488;2024-01-06T15:45:09;7.00;99.90
26537;DHT22;14204;51.262;5.488;2024-01-06T15:47:37;7.00;99.90
26537;DHT22;14204;51.262;5.488;2024-01-06T15:50:03;7.00;99.90
26537;DHT22;14204;51.262;5.488;2024-01-06T15:52:30;7.00;99.90